Time;durP1;ratioP1;P1;durP2;ratioP2;P2;SDS_P1;SDS_P2;PMS_P1;PMS_P2;Temp;Humidity;BMP_temperature;BMP_pressure;BME280_temperature;BME280_humidity;BME280_pressure;Samples;Min_cycle;Max_cycle;Signal;HPM_P1;HPM_P2
2023/08/26 00:00:22;;;;;;;1.08;0.95;;;;;;;;;;1043092;28;20036;-73
2023/08/26 00:00:53;;;;;;;1.63;1.52;;;;;;;;;;1043935;28;20025;-73
2023/08/26 00:01:23;;;;;;;0.40;0.40;;;;;;;;;;1044171;28;20033;-73
2023/08/26 00:01:54;;;;;;;0.45;0.45;;;;;;;;;;1044197;28;20021;-73
2023/08/26 00:02:26;;;;;;;0.40;0.40;;;;;;;;;;1043489;28;20024;-73
2023/08/26 00:02:56;;;;;;;0.85;0.52;;;;;;;;;;1043831;28;20025;-73
2023/08/26 00:03:27;;;;;;;0.38;0.38;;;;;;;;;;1043886;28;20067;-74
2023/08/26 00:03:57;;;;;;;0.30;0.30;;;;;;;;;;1047870;28;20488;-73
2023/08/26 00:04:28;;;;;;;1.48;1.38;;;;;;;;;;1048007;28;20177;-73
2023/08/26 00:04:58;;;;;;;0.43;0.20;;;;;;;;;;1047986;28;20056;-73
2023/08/26 00:05:28;;;;;;;0.32;0.32;;;;;;;;;;1047958;28;20434;-73
2023/08/26 00:05:59;;;;;;;0.50;0.28;;;;;;;;;;1044033;28;20029;-73
2023/08/26 00:06:29;;;;;;;0.05;0.03;;;;;;;;;;1044283;28;20029;-73
2023/08/26 00:07:00;;;;;;;0.32;0.32;;;;;;;;;;1043823;28;20074;-73
2023/08/26 00:07:30;;;;;;;0.75;0.75;;;;;;;;;;1043589;28;20063;-73
2023/08/26 00:08:01;;;;;;;0.35;0.35;;;;;;;;;;1043700;28;20474;-73
2023/08/26 00:08:31;;;;;;;1.20;1.05;;;;;;;;;;1043532;28;20060;-73
2023/08/26 00:09:02;;;;;;;3.03;0.65;;;;;;;;;;1039699;28;20033;-73
2023/08/26 00:09:33;;;;;;;1.75;1.27;;;;;;;;;;1041483;28;20052;-73
2023/08/26 00:10:03;;;;;;;0.43;0.43;;;;;;;;;;1044098;28;20544;-73
2023/08/26 00:10:34;;;;;;;0.25;0.17;;;;;;;;;;1044272;28;20021;-73
2023/08/26 00:11:04;;;;;;;1.27;1.00;;;;;;;;;;1044007;28;20025;-73
2023/08/26 00:11:35;;;;;;;2.42;0.68;;;;;;;;;;1044204;28;20025;-73
2023/08/26 00:12:05;;;;;;;0.80;0.80;;;;;;;;;;1043948;28;20128;-73
2023/08/26 00:12:36;;;;;;;0.10;0.10;;;;;;;;;;1044088;28;20028;-73
2023/08/26 00:13:06;;;;;;;1.60;0.55;;;;;;;;;;1044161;28;20444;-73
2023/08/26 00:13:37;;;;;;;0.13;0.13;;;;;;;;;;1044180;28;20036;-73
2023/08/26 00:14:07;;;;;;;0.38;0.38;;;;;;;;;;1044034;28;20033;-73
2023/08/26 00:14:37;;;;;;;0.55;0.55;;;;;;;;;;1040233;28;20465;-73
2023/08/26 00:15:08;;;;;;;0.20;0.20;;;;;;;;;;1039696;28;20068;-73
2023/08/26 00:15:38;;;;;;;0.35;0.35;;;;;;;;;;1042062;28;20100;-73
2023/08/26 00:16:09;;;;;;;0.85;0.82;;;;;;;;;;1043816;28;20036;-73
2023/08/26 00:16:39;;;;;;;0.28;0.28;;;;;;;;;;1044290;28;20025;-73
2023/08/26 00:17:10;;;;;;;0.20;0.20;;;;;;;;;;1044187;28;20553;-73
2023/08/26 00:17:40;;;;;;;0.30;0.30;;;;;;;;;;1043975;28;20035;-73
2023/08/26 00:18:11;;;;;;;1.73;1.05;;;;;;;;;;1044489;28;20033;-73
2023/08/26 00:18:42;;;;;;;0.30;0.30;;;;;;;;;;1044986;28;20024;-73
2023/08/26 00:19:13;;;;;;;1.27;0.57;;;;;;;;;;1044882;28;20493;-73
2023/08/26 00:19:44;;;;;;;0.38;0.38;;;;;;;;;;1044909;28;20075;-73
2023/08/26 00:20:15;;;;;;;2.45;2.08;;;;;;;;;;1044441;28;20548;-73
2023/08/26 00:20:46;;;;;;;0.10;0.10;;;;;;;;;;1044883;28;20037;-73
2023/08/26 00:21:21;;;;;;;0.95;0.93;;;;;;;;;;1044682;28;20575;-73
2023/08/26 00:21:52;;;;;;;0.30;0.13;;;;;;;;;;1040801;28;20071;-73
2023/08/26 00:22:22;;;;;;;0.35;0.20;;;;;;;;;;1040725;28;20029;-73
2023/08/26 00:22:53;;;;;;;0.00;0.00;;;;;;;;;;1040840;28;20549;-73
2023/08/26 00:23:23;;;;;;;1.13;0.47;;;;;;;;;;1040790;28;20136;-73
2023/08/26 00:23:54;;;;;;;1.10;1.05;;;;;;;;;;1040833;28;20385;-73
2023/08/26 00:24:24;;;;;;;0.20;0.20;;;;;;;;;;1040758;28;20127;-73
2023/08/26 00:24:55;;;;;;;0.35;0.30;;;;;;;;;;1040771;28;20021;-73
2023/08/26 00:25:25;;;;;;;0.47;0.47;;;;;;;;;;1042082;28;20373;-73
2023/08/26 00:25:56;;;;;;;1.08;0.98;;;;;;;;;;1044774;28;20024;-73
2023/08/26 00:26:26;;;;;;;1.65;0.38;;;;;;;;;;1044680;28;20040;-73
2023/08/26 00:26:58;;;;;;;2.25;1.15;;;;;;;;;;1044630;28;20051;-73
2023/08/26 00:27:28;;;;;;;0.25;0.25;;;;;;;;;;1043074;28;20031;-73
2023/08/26 00:27:59;;;;;;;0.28;0.28;;;;;;;;;;1040773;28;20025;-73
2023/08/26 00:28:29;;;;;;;0.85;0.77;;;;;;;;;;1040854;28;20104;-73
2023/08/26 00:29:00;;;;;;;0.80;0.80;;;;;;;;;;1040824;28;20619;-73
2023/08/26 00:29:31;;;;;;;0.82;0.82;;;;;;;;;;1040701;28;20398;-73
2023/08/26 00:30:01;;;;;;;13.25;0.60;;;;;;;;;;1040410;28;20438;-73
2023/08/26 00:30:31;;;;;;;0.25;0.17;;;;;;;;;;1042507;28;20120;-73
2023/08/26 00:31:02;;;;;;;0.17;0.17;;;;;;;;;;1044391;28;20028;-73
2023/08/26 00:31:32;;;;;;;1.33;0.85;;;;;;;;;;1044569;28;20071;-73
2023/08/26 00:32:03;;;;;;;2.60;1.42;;;;;;;;;;1040676;28;20029;-73
2023/08/26 00:32:33;;;;;;;2.03;0.75;;;;;;;;;;1040548;28;20024;-73
2023/08/26 00:33:04;;;;;;;0.00;0.00;;;;;;;;;;1040503;28;20037;-73
2023/08/26 00:33:34;;;;;;;0.90;0.38;;;;;;;;;;1046145;28;20136;-73
2023/08/26 00:34:05;;;;;;;0.25;0.25;;;;;;;;;;1048538;28;20035;-73
2023/08/26 00:34:35;;;;;;;0.45;0.43;;;;;;;;;;1048821;28;20029;-73
2023/08/26 00:35:06;;;;;;;0.10;0.10;;;;;;;;;;1048616;28;20029;-73
2023/08/26 00:35:37;;;;;;;0.30;0.30;;;;;;;;;;1044993;28;20025;-73
2023/08/26 00:36:07;;;;;;;0.08;0.08;;;;;;;;;;1048413;28;20062;-73
2023/08/26 00:36:37;;;;;;;0.88;0.70;;;;;;;;;;1048851;28;20523;-73
2023/08/26 00:37:08;;;;;;;0.80;0.70;;;;;;;;;;1048630;28;20031;-73
2023/08/26 00:37:38;;;;;;;0.40;0.40;;;;;;;;;;1048437;28;20519;-73
2023/08/26 00:38:09;;;;;;;1.58;1.48;;;;;;;;;;1044868;28;20021;-73
2023/08/26 00:38:39;;;;;;;1.45;1.17;;;;;;;;;;1048374;28;20048;-73
2023/08/26 00:39:10;;;;;;;0.15;0.15;;;;;;;;;;1048218;28;20024;-73
2023/08/26 00:39:40;;;;;;;0.10;0.05;;;;;;;;;;1047371;28;20039;-73
2023/08/26 00:40:10;;;;;;;5.18;1.35;;;;;;;;;;1044537;28;20017;-73
2023/08/26 00:40:41;;;;;;;0.13;0.13;;;;;;;;;;1040862;28;20083;-73
2023/08/26 00:41:11;;;;;;;0.08;0.08;;;;;;;;;;1040678;28;20056;-73
2023/08/26 00:41:42;;;;;;;1.33;1.23;;;;;;;;;;1040712;28;20026;-73
2023/08/26 00:42:12;;;;;;;0.20;0.20;;;;;;;;;;1044490;28;20032;-73
2023/08/26 00:42:43;;;;;;;1.15;0.85;;;;;;;;;;1040209;28;20426;-73
2023/08/26 00:43:13;;;;;;;2.80;0.38;;;;;;;;;;1042628;28;20025;-73
2023/08/26 00:43:44;;;;;;;0.35;0.35;;;;;;;;;;1044428;28;20036;-73
2023/08/26 00:44:14;;;;;;;0.65;0.60;;;;;;;;;;1044629;28;20473;-73
2023/08/26 00:44:45;;;;;;;0.30;0.30;;;;;;;;;;1044971;28;20389;-73
2023/08/26 00:45:15;;;;;;;0.73;0.73;;;;;;;;;;1044039;28;20112;-73
2023/08/26 00:45:47;;;;;;;1.40;0.93;;;;;;;;;;1044069;28;20036;-73
2023/08/26 00:46:17;;;;;;;0.38;0.38;;;;;;;;;;1044553;28;20583;-73
2023/08/26 00:46:48;;;;;;;0.20;0.20;;;;;;;;;;1044670;28;20033;-73
2023/08/26 00:47:19;;;;;;;2.13;0.93;;;;;;;;;;1044851;28;20078;-73
2023/08/26 00:47:49;;;;;;;1.05;1.02;;;;;;;;;;1044725;28;20021;-73
2023/08/26 00:48:20;;;;;;;0.90;0.65;;;;;;;;;;1044717;28;20443;-73
2023/08/26 00:48:50;;;;;;;0.22;0.22;;;;;;;;;;1044857;28;20040;-73
2023/08/26 00:49:22;;;;;;;2.00;0.90;;;;;;;;;;1044744;28;20029;-73
2023/08/26 00:49:52;;;;;;;0.55;0.55;;;;;;;;;;1044888;28;20057;-73
2023/08/26 00:50:23;;;;;;;1.67;1.58;;;;;;;;;;1043018;28;20025;-73
2023/08/26 00:50:54;;;;;;;1.48;0.70;;;;;;;;;;1040516;28;20037;-73
2023/08/26 00:51:24;;;;;;;0.40;0.40;;;;;;;;;;1040678;28;20029;-73
2023/08/26 00:51:55;;;;;;;0.60;0.60;;;;;;;;;;1048611;28;20032;-73
2023/08/26 00:52:26;;;;;;;0.32;0.32;;;;;;;;;;1048594;28;20024;-73
2023/08/26 00:52:56;;;;;;;0.13;0.13;;;;;;;;;;1048635;28;20028;-73
2023/08/26 00:53:27;;;;;;;0.10;0.10;;;;;;;;;;1048563;28;20123;-73
2023/08/26 00:53:57;;;;;;;0.70;0.38;;;;;;;;;;1044807;28;20122;-73
2023/08/26 00:54:35;;;;;;;0.38;0.38;;;;;;;;;;1044648;28;20127;-73
2023/08/26 00:55:07;;;;;;;1.27;1.08;;;;;;;;;;1044827;28;20056;-73
2023/08/26 00:55:39;;;;;;;0.52;0.43;;;;;;;;;;1048516;28;20078;-73
2023/08/26 00:56:09;;;;;;;0.45;0.45;;;;;;;;;;1048438;28;20025;-73
2023/08/26 00:56:40;;;;;;;3.20;1.48;;;;;;;;;;1048322;28;20507;-73
2023/08/26 00:57:10;;;;;;;0.10;0.10;;;;;;;;;;1047989;28;20225;-73
2023/08/26 00:57:41;;;;;;;0.93;0.93;;;;;;;;;;1045187;28;20040;-73
2023/08/26 00:58:12;;;;;;;0.15;0.15;;;;;;;;;;1040405;28;20021;-73
2023/08/26 00:58:43;;;;;;;0.17;0.15;;;;;;;;;;1040410;28;20025;-73
2023/08/26 00:59:13;;;;;;;0.03;0.03;;;;;;;;;;1044397;28;20508;-73
2023/08/26 00:59:44;;;;;;;1.35;0.63;;;;;;;;;;1044436;28;20025;-73
2023/08/26 01:00:14;;;;;;;0.65;0.47;;;;;;;;;;1044729;28;20025;-73
2023/08/26 01:00:45;;;;;;;0.50;0.50;;;;;;;;;;1044787;28;20066;-73
2023/08/26 01:01:15;;;;;;;0.73;0.68;;;;;;;;;;1044697;28;20029;-74
2023/08/26 01:01:46;;;;;;;0.05;0.05;;;;;;;;;;1040656;28;20366;-74
2023/08/26 01:02:16;;;;;;;0.10;0.10;;;;;;;;;;1044908;28;20028;-74
2023/08/26 01:02:47;;;;;;;0.20;0.20;;;;;;;;;;1048622;28;20512;-74
2023/08/26 01:03:18;;;;;;;0.30;0.30;;;;;;;;;;1048370;28;20035;-74
2023/08/26 01:03:48;;;;;;;0.80;0.70;;;;;;;;;;1048192;28;20496;-74
2023/08/26 01:04:19;;;;;;;1.25;0.43;;;;;;;;;;1044639;28;20028;-74
2023/08/26 01:04:50;;;;;;;4.15;1.60;;;;;;;;;;1044838;28;20026;-73
2023/08/26 01:05:20;;;;;;;3.50;1.98;;;;;;;;;;1044741;28;20029;-74
2023/08/26 01:05:51;;;;;;;6.32;1.73;;;;;;;;;;1044658;28;20392;-73
2023/08/26 01:06:21;;;;;;;5.32;1.83;;;;;;;;;;1044638;28;20033;-73
2023/08/26 01:06:51;;;;;;;3.33;1.17;;;;;;;;;;1044885;28;20102;-74
2023/08/26 01:07:22;;;;;;;1.65;1.25;;;;;;;;;;1048360;28;20028;-74
2023/08/26 01:07:52;;;;;;;1.92;0.82;;;;;;;;;;1048578;28;20120;-72
2023/08/26 01:08:23;;;;;;;1.17;1.10;;;;;;;;;;1048266;28;20029;-73
2023/08/26 01:08:54;;;;;;;4.18;2.15;;;;;;;;;;1048365;28;20032;-74
2023/08/26 01:09:24;;;;;;;4.57;0.60;;;;;;;;;;1044160;28;20083;-74
2023/08/26 01:09:55;;;;;;;6.40;2.20;;;;;;;;;;1044797;28;20481;-74
2023/08/26 01:10:36;;;;;;;6.85;2.58;;;;;;;;;;1044865;28;20518;-74
2023/08/26 01:11:06;;;;;;;6.60;1.25;;;;;;;;;;1044546;28;20528;-74
2023/08/26 01:11:37;;;;;;;8.95;2.80;;;;;;;;;;1044781;28;20029;-72
2023/08/26 01:12:23;;;;;;;3.00;2.00;;;;;;;;;;1044656;28;20028;-72
2023/08/26 01:13:02;;;;;;;4.32;1.08;;;;;;;;;;1048459;28;20021;-74
2023/08/26 01:13:38;;;;;;;15.13;1.45;;;;;;;;;;1048632;28;20115;-74
2023/08/26 01:14:35;;;;;;;4.47;1.38;;;;;;;;;;1048435;28;20488;-74
2023/08/26 01:15:10;;;;;;;0.35;0.35;;;;;;;;;;1039879;28;20080;-74
2023/08/26 01:15:41;;;;;;;7.03;2.15;;;;;;;;;;1043069;28;20563;-74
2023/08/26 01:16:13;;;;;;;4.70;2.28;;;;;;;;;;1044646;28;20029;-74
2023/08/26 01:16:43;;;;;;;1.17;1.00;;;;;;;;;;1044802;28;20032;-74
2023/08/26 01:17:15;;;;;;;3.58;0.70;;;;;;;;;;1044731;28;20024;-74
2023/08/26 01:17:45;;;;;;;2.40;1.90;;;;;;;;;;1044526;28;20071;-74
2023/08/26 01:18:16;;;;;;;5.53;2.28;;;;;;;;;;1044712;28;20495;-74
2023/08/26 01:18:47;;;;;;;1.05;0.95;;;;;;;;;;1044817;28;20060;-74
2023/08/26 01:19:31;;;;;;;0.60;0.43;;;;;;;;;;1044650;28;20032;-74
2023/08/26 01:20:03;;;;;;;1.33;0.88;;;;;;;;;;1044690;28;20231;-74
2023/08/26 01:20:34;;;;;;;1.60;1.23;;;;;;;;;;1044549;28;20025;-74
2023/08/26 01:21:05;;;;;;;1.92;1.08;;;;;;;;;;1044308;28;20540;-74
2023/08/26 01:21:36;;;;;;;1.98;1.45;;;;;;;;;;1042336;28;20036;-74
2023/08/26 01:22:07;;;;;;;1.25;1.10;;;;;;;;;;1040471;28;20026;-74
2023/08/26 01:22:40;;;;;;;3.30;1.45;;;;;;;;;;1040200;28;20017;-74
2023/08/26 01:23:12;;;;;;;2.30;1.48;;;;;;;;;;1040293;28;20029;-74
2023/08/26 01:23:43;;;;;;;6.57;1.20;;;;;;;;;;1040257;28;20037;-74
2023/08/26 01:24:15;;;;;;;0.20;0.20;;;;;;;;;;1040250;28;20021;-74
2023/08/26 01:24:45;;;;;;;2.20;2.00;;;;;;;;;;1044464;28;20033;-74
2023/08/26 01:25:16;;;;;;;1.00;1.00;;;;;;;;;;1044713;28;20496;-74
2023/08/26 01:25:46;;;;;;;1.80;0.98;;;;;;;;;;1043883;28;20025;-74
2023/08/26 01:26:17;;;;;;;0.82;0.32;;;;;;;;;;1044217;28;20033;-74
2023/08/26 01:26:47;;;;;;;1.15;0.88;;;;;;;;;;1044767;28;20048;-74
2023/08/26 01:27:18;;;;;;;0.35;0.25;;;;;;;;;;1044364;28;20374;-74
2023/08/26 01:27:48;;;;;;;5.47;1.75;;;;;;;;;;1044175;28;20064;-74
2023/08/26 01:28:19;;;;;;;3.50;0.52;;;;;;;;;;1048431;28;20472;-74
2023/08/26 01:28:49;;;;;;;1.42;1.17;;;;;;;;;;1048438;28;20118;-74
2023/08/26 01:29:20;;;;;;;3.28;1.13;;;;;;;;;;1048153;28;20052;-74
2023/08/26 01:29:50;;;;;;;7.82;2.08;;;;;;;;;;1047752;28;20050;-74
2023/08/26 01:30:21;;;;;;;0.85;0.68;;;;;;;;;;1044144;28;20032;-72
2023/08/26 01:30:52;;;;;;;1.77;0.63;;;;;;;;;;1048400;28;20107;-72
2023/08/26 01:31:26;;;;;;;0.55;0.55;;;;;;;;;;1048460;28;20107;-72
2023/08/26 01:32:16;;;;;;;4.07;2.65;;;;;;;;;;1048500;28;20500;-72
2023/08/26 01:32:57;;;;;;;0.10;0.10;;;;;;;;;;1045436;28;20493;-73
2023/08/26 01:33:31;;;;;;;0.10;0.10;;;;;;;;;;1043942;28;20079;-74
2023/08/26 01:34:06;;;;;;;1.77;1.67;;;;;;;;;;1044275;28;20100;-73
2023/08/26 01:34:38;;;;;;;5.88;1.60;;;;;;;;;;1044441;28;20362;-73
2023/08/26 01:35:11;;;;;;;0.60;0.57;;;;;;;;;;1043016;28;20416;-73
2023/08/26 01:35:43;;;;;;;0.10;0.03;;;;;;;;;;1040548;28;20549;-73
2023/08/26 01:36:17;;;;;;;0.50;0.50;;;;;;;;;;1040457;28;20108;-73
2023/08/26 01:36:48;;;;;;;1.20;0.60;;;;;;;;;;1040606;28;20075;-73
2023/08/26 01:37:19;;;;;;;2.17;1.10;;;;;;;;;;1041010;28;20021;-74
2023/08/26 01:37:50;;;;;;;0.95;0.90;;;;;;;;;;1048206;28;20401;-74
2023/08/26 01:38:21;;;;;;;7.63;1.70;;;;;;;;;;1048294;28;20115;-73
2023/08/26 01:38:53;;;;;;;0.85;0.22;;;;;;;;;;1048444;28;20028;-73
2023/08/26 01:39:24;;;;;;;0.20;0.20;;;;;;;;;;1047576;28;20529;-73
2023/08/26 01:39:57;;;;;;;0.75;0.75;;;;;;;;;;1041665;28;20056;-73
2023/08/26 01:40:29;;;;;;;2.83;0.82;;;;;;;;;;1040680;28;20029;-73
2023/08/26 01:41:00;;;;;;;1.00;0.40;;;;;;;;;;1044033;28;20413;-73
2023/08/26 01:41:31;;;;;;;3.38;1.20;;;;;;;;;;1044355;28;20025;-73
2023/08/26 01:42:02;;;;;;;0.95;0.93;;;;;;;;;;1044353;28;20025;-73
2023/08/26 01:42:35;;;;;;;1.55;0.82;;;;;;;;;;1042187;28;20033;-73
2023/08/26 01:43:06;;;;;;;1.20;1.10;;;;;;;;;;1040072;28;20029;-73
2023/08/26 01:43:37;;;;;;;0.30;0.30;;;;;;;;;;1040256;28;20026;-73
2023/08/26 01:44:07;;;;;;;1.75;1.33;;;;;;;;;;1036235;28;20034;-73
2023/08/26 01:44:39;;;;;;;14.98;1.02;;;;;;;;;;1040204;28;20020;-73
2023/08/26 01:45:11;;;;;;;1.48;1.38;;;;;;;;;;1043940;28;20094;-73
2023/08/26 01:45:42;;;;;;;0.17;0.17;;;;;;;;;;1042728;28;20509;-74
2023/08/26 01:46:14;;;;;;;0.75;0.50;;;;;;;;;;1048274;28;20028;-73
2023/08/26 01:46:45;;;;;;;0.40;0.40;;;;;;;;;;1047390;28;20033;-73
2023/08/26 01:47:15;;;;;;;1.83;1.50;;;;;;;;;;1043392;28;20020;-73
2023/08/26 01:47:46;;;;;;;0.17;0.17;;;;;;;;;;1043450;28;20021;-74
2023/08/26 01:48:16;;;;;;;0.10;0.10;;;;;;;;;;1043812;28;20071;-74
2023/08/26 01:48:47;;;;;;;0.38;0.38;;;;;;;;;;1043744;28;20076;-73
2023/08/26 01:49:17;;;;;;;0.43;0.43;;;;;;;;;;1043772;28;20025;-74
2023/08/26 01:49:51;;;;;;;0.30;0.30;;;;;;;;;;1044430;28;20056;-73
2023/08/26 01:50:21;;;;;;;5.57;0.50;;;;;;;;;;1043809;28;20094;-74
2023/08/26 01:50:51;;;;;;;0.15;0.15;;;;;;;;;;1043926;28;20111;-73
2023/08/26 01:51:22;;;;;;;1.10;0.82;;;;;;;;;;1044140;28;20032;-73
2023/08/26 01:51:52;;;;;;;2.53;1.15;;;;;;;;;;1044517;28;20060;-73
2023/08/26 01:52:23;;;;;;;12.07;1.42;;;;;;;;;;1047269;28;20030;-73
2023/08/26 01:52:53;;;;;;;0.10;0.10;;;;;;;;;;1045923;28;20024;-73
2023/08/26 01:53:24;;;;;;;0.38;0.38;;;;;;;;;;1048192;28;20434;-73
2023/08/26 01:53:54;;;;;;;0.95;0.75;;;;;;;;;;1047651;28;20442;-73
2023/08/26 01:54:24;;;;;;;0.50;0.50;;;;;;;;;;1044495;28;20385;-73
2023/08/26 01:54:55;;;;;;;0.25;0.25;;;;;;;;;;1044559;28;20021;-73
2023/08/26 01:55:26;;;;;;;0.80;0.75;;;;;;;;;;1043395;28;20378;-73
2023/08/26 01:55:56;;;;;;;0.52;0.15;;;;;;;;;;1044295;28;20025;-73
2023/08/26 01:56:27;;;;;;;1.55;1.35;;;;;;;;;;1041804;28;20033;-73
2023/08/26 01:56:57;;;;;;;0.47;0.47;;;;;;;;;;1039684;28;20030;-73
2023/08/26 01:57:27;;;;;;;8.45;1.42;;;;;;;;;;1036438;28;20117;-73
2023/08/26 01:57:58;;;;;;;0.88;0.73;;;;;;;;;;1040154;28;20541;-74
2023/08/26 01:58:28;;;;;;;4.55;1.80;;;;;;;;;;1040347;28;20558;-73
2023/08/26 01:58:59;;;;;;;1.65;0.40;;;;;;;;;;1044147;28;20021;-73
2023/08/26 01:59:29;;;;;;;0.52;0.52;;;;;;;;;;1044337;28;20025;-73
2023/08/26 02:00:00;;;;;;;1.35;1.17;;;;;;;;;;1044204;28;20024;-73
2023/08/26 02:00:30;;;;;;;1.10;0.90;;;;;;;;;;1044101;28;20021;-73
2023/08/26 02:01:04;;;;;;;0.40;0.40;;;;;;;;;;1044097;28;20032;-73
2023/08/26 02:01:35;;;;;;;0.20;0.20;;;;;;;;;;1043667;28;20032;-73
2023/08/26 02:02:05;;;;;;;0.38;0.38;;;;;;;;;;1040370;28;20025;-74
2023/08/26 02:02:36;;;;;;;0.75;0.73;;;;;;;;;;1041213;28;20488;-73
2023/08/26 02:03:06;;;;;;;3.30;0.30;;;;;;;;;;1044161;28;20025;-73
2023/08/26 02:03:37;;;;;;;1.42;0.88;;;;;;;;;;1043976;28;20037;-73
2023/08/26 02:04:07;;;;;;;0.22;0.20;;;;;;;;;;1044390;28;20021;-73
2023/08/26 02:04:38;;;;;;;0.10;0.10;;;;;;;;;;1044469;28;20025;-73
2023/08/26 02:05:08;;;;;;;0.57;0.55;;;;;;;;;;1048191;28;20024;-73
2023/08/26 02:05:39;;;;;;;0.70;0.70;;;;;;;;;;1048260;28;20016;-73
2023/08/26 02:06:09;;;;;;;0.57;0.47;;;;;;;;;;1048190;28;20082;-73
2023/08/26 02:06:40;;;;;;;1.77;1.23;;;;;;;;;;1048349;28;20492;-73
2023/08/26 02:07:11;;;;;;;2.70;0.55;;;;;;;;;;1044222;28;20021;-73
2023/08/26 02:07:42;;;;;;;0.30;0.30;;;;;;;;;;1044327;28;20552;-73
2023/08/26 02:08:13;;;;;;;1.17;1.08;;;;;;;;;;1047824;28;20487;-73
2023/08/26 02:08:43;;;;;;;2.28;1.02;;;;;;;;;;1048175;28;20016;-74
2023/08/26 02:09:14;;;;;;;0.43;0.43;;;;;;;;;;1046874;28;20029;-73
2023/08/26 02:09:44;;;;;;;1.13;0.75;;;;;;;;;;1047909;28;20029;-73
2023/08/26 02:10:15;;;;;;;0.22;0.22;;;;;;;;;;1044550;28;20025;-73
2023/08/26 02:10:52;;;;;;;0.55;0.55;;;;;;;;;;1044423;28;20028;-73
2023/08/26 02:11:23;;;;;;;0.93;0.85;;;;;;;;;;1043997;28;20438;-73
2023/08/26 02:11:53;;;;;;;0.15;0.15;;;;;;;;;;1044130;28;20116;-73
2023/08/26 02:12:24;;;;;;;1.52;1.15;;;;;;;;;;1044082;28;20596;-73
2023/08/26 02:12:54;;;;;;;0.28;0.20;;;;;;;;;;1044156;28;20055;-74
2023/08/26 02:13:25;;;;;;;2.42;1.38;;;;;;;;;;1044155;28;20017;-74
2023/08/26 02:13:55;;;;;;;0.30;0.30;;;;;;;;;;1044572;28;20033;-73
2023/08/26 02:14:26;;;;;;;2.47;1.38;;;;;;;;;;1041997;28;20021;-74
2023/08/26 02:14:56;;;;;;;0.52;0.52;;;;;;;;;;1040128;28;20037;-73
2023/08/26 02:15:26;;;;;;;0.75;0.70;;;;;;;;;;1039948;28;20030;-73
2023/08/26 02:15:58;;;;;;;0.43;0.43;;;;;;;;;;1042130;28;20110;-73
2023/08/26 02:16:28;;;;;;;0.47;0.47;;;;;;;;;;1044157;28;20029;-73
2023/08/26 02:16:59;;;;;;;0.00;0.00;;;;;;;;;;1044512;28;20020;-73
2023/08/26 02:17:29;;;;;;;1.20;0.90;;;;;;;;;;1044028;28;20025;-73
2023/08/26 02:18:00;;;;;;;0.20;0.17;;;;;;;;;;1035920;28;20452;-73
2023/08/26 02:18:30;;;;;;;0.38;0.38;;;;;;;;;;1043324;28;20032;-73
2023/08/26 02:19:01;;;;;;;2.38;0.55;;;;;;;;;;1044464;28;20024;-73
2023/08/26 02:19:31;;;;;;;0.00;0.00;;;;;;;;;;1044338;28;20028;-73
2023/08/26 02:20:02;;;;;;;1.33;0.85;;;;;;;;;;1044397;28;20060;-73
2023/08/26 02:20:33;;;;;;;0.98;0.57;;;;;;;;;;1044186;28;20107;-73
2023/08/26 02:21:04;;;;;;;2.00;0.93;;;;;;;;;;1045016;28;20136;-74
2023/08/26 02:21:34;;;;;;;1.23;0.90;;;;;;;;;;1047084;28;20024;-74
2023/08/26 02:22:05;;;;;;;2.22;0.10;;;;;;;;;;1045327;28;20397;-74
2023/08/26 02:22:35;;;;;;;0.65;0.65;;;;;;;;;;1048111;28;20464;-75
2023/08/26 02:23:06;;;;;;;0.20;0.20;;;;;;;;;;1044089;28;20463;-73
2023/08/26 02:23:36;;;;;;;0.68;0.68;;;;;;;;;;1040001;28;20115;-73
2023/08/26 02:24:07;;;;;;;2.75;0.80;;;;;;;;;;1043827;28;20138;-73
2023/08/26 02:24:37;;;;;;;0.40;0.35;;;;;;;;;;1044111;28;20033;-73
2023/08/26 02:25:08;;;;;;;0.80;0.55;;;;;;;;;;1044096;28;20017;-74
2023/08/26 02:25:39;;;;;;;0.75;0.75;;;;;;;;;;1044437;28;20028;-74
2023/08/26 02:26:09;;;;;;;3.00;1.10;;;;;;;;;;1047934;28;20020;-73
2023/08/26 02:26:40;;;;;;;0.50;0.50;;;;;;;;;;1048040;28;20115;-73
2023/08/26 02:27:10;;;;;;;11.35;1.60;;;;;;;;;;1047999;28;20039;-74
2023/08/26 02:27:41;;;;;;;0.25;0.17;;;;;;;;;;1044628;28;20021;-73
2023/08/26 02:28:11;;;;;;;0.30;0.30;;;;;;;;;;1040266;28;20120;-74
2023/08/26 02:28:42;;;;;;;2.50;1.77;;;;;;;;;;1040046;28;20032;-74
2023/08/26 02:29:12;;;;;;;0.52;0.52;;;;;;;;;;1043988;28;20059;-73
2023/08/26 02:29:43;;;;;;;0.00;0.00;;;;;;;;;;1043918;28;20017;-73
2023/08/26 02:30:13;;;;;;;2.90;0.88;;;;;;;;;;1044040;28;20025;-73
2023/08/26 02:30:44;;;;;;;1.98;1.08;;;;;;;;;;1044051;28;20048;-74
2023/08/26 02:31:14;;;;;;;0.93;0.93;;;;;;;;;;1044118;28;20029;-74
2023/08/26 02:31:45;;;;;;;0.20;0.20;;;;;;;;;;1044151;28;20013;-74
2023/08/26 02:32:15;;;;;;;1.20;0.10;;;;;;;;;;1043974;28;20575;-74
2023/08/26 02:32:46;;;;;;;0.77;0.77;;;;;;;;;;1044303;28;20029;-74
2023/08/26 02:33:16;;;;;;;0.25;0.17;;;;;;;;;;1044190;28;20025;-73
2023/08/26 02:33:46;;;;;;;1.85;1.58;;;;;;;;;;1044022;28;20024;-73
2023/08/26 02:34:17;;;;;;;3.85;1.60;;;;;;;;;;1044215;28;20035;-74
2023/08/26 02:34:47;;;;;;;0.82;0.30;;;;;;;;;;1044380;28;20028;-74
2023/08/26 02:35:18;;;;;;;0.22;0.22;;;;;;;;;;1044480;28;20029;-73
2023/08/26 02:35:48;;;;;;;3.72;2.03;;;;;;;;;;1044148;28;20029;-73
2023/08/26 02:36:19;;;;;;;0.47;0.40;;;;;;;;;;1043965;28;20024;-74
2023/08/26 02:36:49;;;;;;;0.40;0.40;;;;;;;;;;1042760;28;20083;-74
2023/08/26 02:37:21;;;;;;;0.17;0.17;;;;;;;;;;1043996;28;20484;-73
2023/08/26 02:37:51;;;;;;;1.70;1.13;;;;;;;;;;1044121;28;20021;-73
2023/08/26 02:38:22;;;;;;;1.45;1.23;;;;;;;;;;1042664;28;20064;-74
2023/08/26 02:38:52;;;;;;;0.10;0.10;;;;;;;;;;1038674;28;20032;-73
2023/08/26 02:39:23;;;;;;;2.30;1.40;;;;;;;;;;1034791;28;20024;-74
2023/08/26 02:39:54;;;;;;;2.50;0.55;;;;;;;;;;1034813;28;20025;-74
2023/08/26 02:40:25;;;;;;;0.43;0.43;;;;;;;;;;1034431;28;20329;-74
2023/08/26 02:40:56;;;;;;;0.30;0.30;;;;;;;;;;1029521;28;20021;-74
2023/08/26 02:41:26;;;;;;;0.10;0.10;;;;;;;;;;1036694;28;20134;-74
2023/08/26 02:41:56;;;;;;;2.70;0.22;;;;;;;;;;1037561;28;20033;-73
2023/08/26 02:42:29;;;;;;;0.20;0.20;;;;;;;;;;1033538;28;20183;-73
2023/08/26 02:42:59;;;;;;;0.80;0.75;;;;;;;;;;1037691;28;20216;-73
2023/08/26 02:43:30;;;;;;;6.07;1.25;;;;;;;;;;1037859;28;20216;-73
2023/08/26 02:44:00;;;;;;;1.98;0.60;;;;;;;;;;1037697;28;20029;-74
2023/08/26 02:44:31;;;;;;;1.23;0.65;;;;;;;;;;1037554;28;20029;-74
2023/08/26 02:45:01;;;;;;;0.20;0.15;;;;;;;;;;1037565;28;20551;-74
2023/08/26 02:45:32;;;;;;;0.10;0.10;;;;;;;;;;1037672;28;20465;-74
2023/08/26 02:46:02;;;;;;;1.75;0.98;;;;;;;;;;1037721;28;20024;-74
2023/08/26 02:46:33;;;;;;;9.23;0.40;;;;;;;;;;1037966;28;20032;-74
2023/08/26 02:47:03;;;;;;;1.10;1.02;;;;;;;;;;1037654;28;20486;-74
2023/08/26 02:47:34;;;;;;;0.10;0.10;;;;;;;;;;1038069;28;20029;-74
2023/08/26 02:48:04;;;;;;;0.00;0.00;;;;;;;;;;1036987;28;20029;-75
2023/08/26 02:48:40;;;;;;;1.58;1.48;;;;;;;;;;1037405;28;20029;-74
2023/08/26 02:49:10;;;;;;;1.10;0.85;;;;;;;;;;1038152;28;20308;-74
2023/08/26 02:49:41;;;;;;;0.30;0.30;;;;;;;;;;1037709;28;20534;-74
2023/08/26 02:50:11;;;;;;;0.00;0.00;;;;;;;;;;1037728;28;20472;-73
2023/08/26 02:50:42;;;;;;;0.00;0.00;;;;;;;;;;1033304;28;20116;-73
2023/08/26 02:51:12;;;;;;;2.72;2.53;;;;;;;;;;1033159;28;20029;-73
2023/08/26 02:51:43;;;;;;;0.85;0.52;;;;;;;;;;1035853;28;20999;-73
2023/08/26 02:52:13;;;;;;;0.32;0.30;;;;;;;;;;1037513;28;20032;-73
2023/08/26 02:52:44;;;;;;;0.57;0.38;;;;;;;;;;1033169;28;20025;-74
2023/08/26 02:53:15;;;;;;;0.63;0.63;;;;;;;;;;1037303;28;20083;-73
2023/08/26 02:53:45;;;;;;;1.50;1.33;;;;;;;;;;1037449;28;20025;-74
2023/08/26 02:54:15;;;;;;;0.65;0.40;;;;;;;;;;1037467;28;20028;-74
2023/08/26 02:54:46;;;;;;;0.52;0.52;;;;;;;;;;1037966;28;20079;-73
2023/08/26 02:55:16;;;;;;;2.55;1.65;;;;;;;;;;1036916;28;20414;-73
2023/08/26 02:55:47;;;;;;;1.55;1.27;;;;;;;;;;1032918;28;20470;-73
2023/08/26 02:56:17;;;;;;;0.60;0.50;;;;;;;;;;1035735;28;20040;-73
2023/08/26 02:56:48;;;;;;;1.85;0.70;;;;;;;;;;1032902;28;20032;-73
2023/08/26 02:57:19;;;;;;;0.38;0.38;;;;;;;;;;1034531;28;20025;-73
2023/08/26 02:57:49;;;;;;;13.15;1.02;;;;;;;;;;1034686;28;20495;-74
2023/08/26 02:58:23;;;;;;;1.00;0.50;;;;;;;;;;1035032;28;20021;-73
2023/08/26 02:58:54;;;;;;;1.65;1.13;;;;;;;;;;1035439;28;20492;-74
2023/08/26 02:59:26;;;;;;;0.38;0.35;;;;;;;;;;1036885;28;20028;-74
2023/08/26 02:59:56;;;;;;;0.82;0.77;;;;;;;;;;1034835;28;20029;-73
2023/08/26 03:00:27;;;;;;;4.53;1.40;;;;;;;;;;1033195;28;20116;-73
2023/08/26 03:01:01;;;;;;;3.70;3.40;;;;;;;;;;1033642;28;20033;-73
2023/08/26 03:01:31;;;;;;;0.20;0.20;;;;;;;;;;1034320;28;20564;-74
2023/08/26 03:02:03;;;;;;;2.28;0.80;;;;;;;;;;1033927;28;20511;-73
2023/08/26 03:02:34;;;;;;;2.75;1.38;;;;;;;;;;1036694;28;20120;-73
2023/08/26 03:03:04;;;;;;;0.03;0.00;;;;;;;;;;1036410;28;20040;-74
2023/08/26 03:03:35;;;;;;;0.68;0.63;;;;;;;;;;1035196;28;20041;-74
2023/08/26 03:04:05;;;;;;;0.10;0.10;;;;;;;;;;1035648;28;20378;-73
2023/08/26 03:04:35;;;;;;;4.85;1.60;;;;;;;;;;1037014;28;20768;-74
2023/08/26 03:05:06;;;;;;;19.10;1.30;;;;;;;;;;1034694;28;20025;-73
2023/08/26 03:05:39;;;;;;;1.85;1.73;;;;;;;;;;1033269;28;20036;-73
2023/08/26 03:06:10;;;;;;;1.67;0.50;;;;;;;;;;1033179;28;20029;-73
2023/08/26 03:06:44;;;;;;;1.05;0.98;;;;;;;;;;1034021;28;20353;-73